• Join FlightAware (Why Join?)
  • Login
  • US Flag 
12:54PM EDT


 

Airport Tracker/Info


-or-


 

Live Flight TrackerFlight Track Log ✈ N75AW ✈ 14-Nov-2013 ✈ KAPF - KGNV

Flight Track Log - Related Links

Times and Time Zones

All times are in EST time to prevent confusion due to time zone crossing. See the N75AW flight status page for this flight to view local times or setup timezone preferences in your user account.

Time Position Orientation Groundspeed Altitude Reporting Facility
EST Latitude Longitude Course Direction KTS MPH feet Rate Location/Type
08:32AM 26.2908 -81.7525 354° North 219 252 5,200  Level Miami Center
08:33AM 26.3453 -81.7503 North 205 236 6,700 1,620 Climbing Miami Center
08:34AM 26.4033 -81.7619 350° North 195 224 8,500 1,560 Climbing Miami Center
08:35AM 26.4572 -81.7711 351° North 195 224 9,900 1,320 Climbing Miami Center
08:36AM 26.5191 -81.8256 354° North  Level Estimated
08:36AM 26.5069 -81.7847 346° North 201 231 11,200  Level Miami Center
08:37AM 26.5631 -81.7894 356° North 201 231 12,700 1,500 Climbing Miami Center
08:38AM 26.6211 -81.7989 352° North 201 231 14,200 1,500 Climbing Miami Center
08:39AM 26.6814 -81.8106 350° North 206 237 15,700 1,560 Climbing Miami Center
08:40AM 26.7478 -81.8181 354° North 216 249 17,400 1,200 Climbing Miami Center
08:41AM 26.7997 -81.8272 351° North 216 249 18,100 300 Climbing Miami Center
08:42AM 26.8786 -81.8400 352° North 230 265 18,000 -60 Descending Miami Center
08:43AM 26.9575 -81.8528 352° North 271 312 18,000  Level Miami Center
08:44AM 27.0261 -81.8625 353° North 282 325 18,000  Level Miami Center
08:45AM 27.1050 -81.8731 353° North 282 325 18,000  Level Miami Center
08:46AM 27.1839 -81.8858 352° North 282 325 18,000  Level Miami Center
08:47AM 27.2606 -81.9008 350° North 282 325 18,000  Level Miami Center
08:48AM 27.3375 -81.9133 352° North 276 318 18,000  Level Miami Center
08:49AM 27.4161 -81.9264 352° North 276 318 18,000  Level Miami Center
08:50AM 27.4931 -81.9389 352° North 276 318 18,000  Level Miami Center
08:51AM 27.5761 -81.9497 353° North 276 318 18,000  Level Miami Center
08:52AM 27.6444 -81.9622 351° North 276 318 18,000  Level Miami Center
08:53AM 27.7214 -81.9725 353° North 276 318 18,000  Level Miami Center
08:54AM 27.8106 -81.9883 351° North 286 329 18,000  Level Miami Center
08:56AM 27.9467 -82.0092 352° North 268 308 18,000  Level Jacksonville Center
08:57AM 28.0217 -82.0228 351° North 268 308 18,000  Level Jacksonville Center
08:58AM 28.0992 -82.0339 353° North 273 314 18,000  Level Jacksonville Center
08:59AM 28.1764 -82.0450 353° North 273 314 18,000  Level Jacksonville Center
09:00AM 28.2517 -82.0561 353° North 279 321 18,000  Level Jacksonville Center
09:01AM 28.3289 -82.0697 351° North 279 321 18,000  Level Jacksonville Center
09:02AM 28.4042 -82.0808 353° North 279 321 18,000  Level Jacksonville Center
09:03AM 28.4792 -82.0897 354° North 279 321 18,000  Level Jacksonville Center
09:04AM 28.5522 -82.1008 352° North 274 315 18,000  Level Jacksonville Center
09:05AM 28.6275 -82.1119 353° North 274 315 18,000  Level Jacksonville Center
09:06AM 28.7028 -82.1233 352° North 274 315 18,000 -300 Level Jacksonville Center
09:07AM 28.7781 -82.1344 353° North 274 315 17,400 -1,140 Descending Jacksonville Center
09:08AM 28.8197 -82.1414 352° North 274 315 16,300 -2,040 Descending Jacksonville Center
09:08AM 28.8553 -82.1458 354° North 274 315 15,400 -2,400 Descending Jacksonville Center
09:08AM 28.8803 -82.1481 356° North 286 329 14,600 -2,400 Descending Jacksonville Center
09:09AM 28.9492 -82.1594 352° North 289 333 12,700 -1,920 Descending Jacksonville Center
09:10AM 29.0097 -82.1683 353° North 274 315 11,300 -1,620 Descending Jacksonville Center
09:10AM 29.0392 -82.1753 348° North 281 323 10,900 -1,140 Descending Jacksonville Center
09:11AM 29.0831 -82.1797 355° North 274 315 10,200 -1,200 Descending Jacksonville Center
09:11AM 29.1100 -82.1892 343° North 264 304 9,700 -1,200 Descending Jacksonville Center
09:12AM 29.1561 -82.1936 355° North 274 315 9,000 -1,200 Descending Jacksonville Center
09:12AM 29.1936 -82.2003 351° North 257 296 8,400 -1,020 Descending Jacksonville Center
09:13AM 29.2292 -82.2025 357° North 264 304 8,000 -420 Descending Jacksonville Center
09:13AM 29.2647 -82.2069 354° North 254 292 8,000  Level Jacksonville Center
09:14AM 29.2939 -82.2139 348° North 254 292 8,000 -540 Level Jacksonville Center
09:15AM 29.3317 -82.2233 348° North 233 268 7,400 -1,020 Descending Jacksonville Center
09:15AM 29.3608 -82.2231 360° North 249 287 7,000 -1,260 Descending Jacksonville Center
09:15AM 29.3922 -82.2300 349° North 248 285 6,400 -1,200 Descending Jacksonville Center
09:16AM 29.4297 -82.2322 357° North 249 287 5,800 -1,200 Descending Jacksonville Center
09:16AM 29.4633 -82.2461 340° North 249 287 5,200 -1,200 Descending Jacksonville Center
09:17AM 29.4947 -82.2628 335° Northwest 244 281 4,600 -1,200 Descending Jacksonville Center
09:18AM 29.5303 -82.2864 330° Northwest 251 289 3,900 -1,320 Descending Jacksonville Center
09:18AM 29.5908 -82.3147 338° Northwest 255 293 2,800 -1,080 Descending Jacksonville Center
09:19AM 29.6494 -82.3261 350° North 196 226 1,900 -1,020 Descending Jacksonville Center
09:20AM 29.6806 -82.3069 28° Northeast 108 124 800 -1,140 Descending Jacksonville Center
09:22AM 29.6901 -82.2718 85° East  Level Estimated